Time;durP1;ratioP1;P1;durP2;ratioP2;P2;SDS_P1;SDS_P2;PMS_P1;PMS_P2;Temp;Humidity;BMP_temperature;BMP_pressure;BME280_temperature;BME280_humidity;BME280_pressure;Samples;Min_cycle;Max_cycle;Signal;HPM_P1;HPM_P2
2022/12/20 00:02:07;;;;;;;6.60;3.65;;;11.00;62.00;;;;;;5060375;28;20056;-52
2022/12/20 00:04:34;;;;;;;10.38;4.47;;;11.00;62.10;;;;;;5056970;28;20404;-50
2022/12/20 00:07:01;;;;;;;9.40;3.83;;;11.00;62.20;;;;;;5060338;28;20053;-52
2022/12/20 00:09:28;;;;;;;5.68;3.20;;;11.00;62.40;;;;;;5059944;28;20396;-51
2022/12/20 00:11:56;;;;;;;6.25;3.40;;;11.00;62.60;;;;;;5060086;28;20064;-48
2022/12/20 00:14:23;;;;;;;6.43;3.80;;;11.00;62.70;;;;;;5058494;28;20063;-51
2022/12/20 00:16:51;;;;;;;6.68;3.70;;;11.10;62.80;;;;;;5064411;28;20523;-50
2022/12/20 00:19:19;;;;;;;5.13;3.30;;;11.10;62.70;;;;;;5060154;28;20055;-48
2022/12/20 00:21:46;;;;;;;5.53;3.38;;;11.10;62.60;;;;;;5062038;28;20044;-49
2022/12/20 00:24:13;;;;;;;5.80;3.17;;;11.10;62.70;;;;;;5063134;28;20059;-49
2022/12/20 00:26:40;;;;;;;6.80;3.90;;;11.10;62.60;;;;;;5063437;28;20400;-51
2022/12/20 00:29:07;;;;;;;7.50;3.67;;;11.20;62.70;;;;;;5062663;28;20052;-50
2022/12/20 00:31:35;;;;;;;7.97;3.90;;;11.20;62.80;;;;;;5064167;28;20048;-50
2022/12/20 00:34:03;;;;;;;5.03;3.15;;;11.20;62.90;;;;;;5058496;28;20514;-52
2022/12/20 00:36:32;;;;;;;6.72;3.80;;;11.20;63.00;;;;;;5063904;28;20409;-52
2022/12/20 00:39:00;;;;;;;7.20;4.10;;;11.20;63.00;;;;;;5061616;28;20052;-52
2022/12/20 00:41:28;;;;;;;11.25;4.43;;;11.20;62.90;;;;;;5064021;28;20059;-51
2022/12/20 00:43:56;;;;;;;6.60;3.65;;;11.30;63.00;;;;;;5062477;28;20384;-47
2022/12/20 00:46:24;;;;;;;8.10;4.00;;;11.30;63.00;;;;;;5062050;28;20059;-52
2022/12/20 00:48:51;;;;;;;9.73;3.92;;;11.30;63.00;;;;;;5059994;28;20404;-52
2022/12/20 00:51:22;;;;;;;6.50;3.80;;;11.30;63.00;;;;;;5060554;28;20052;-52
2022/12/20 00:53:50;;;;;;;6.93;4.30;;;11.30;63.00;;;;;;5061880;28;20403;-50
2022/12/20 00:56:17;;;;;;;7.38;3.75;;;11.30;62.90;;;;;;5063633;28;20093;-52
2022/12/20 00:58:45;;;;;;;7.35;3.92;;;11.30;62.90;;;;;;5063902;28;20053;-51
2022/12/20 01:01:18;;;;;;;8.25;4.30;;;11.30;62.90;;;;;;5062021;28;20400;-48
2022/12/20 01:03:45;;;;;;;8.10;4.35;;;11.30;62.70;;;;;;5059797;28;20053;-52
2022/12/20 01:06:12;;;;;;;7.20;4.20;;;11.30;62.60;;;;;;5063634;28;20049;-51
2022/12/20 01:08:41;;;;;;;10.10;4.28;;;11.30;62.50;;;;;;5062553;28;20059;-50
2022/12/20 01:11:11;;;;;;;6.25;4.25;;;11.30;62.40;;;;;;5062978;28;20060;-50
2022/12/20 01:13:42;;;;;;;8.50;4.60;;;11.30;62.20;;;;;;5061810;28;20056;-52
2022/12/20 01:16:12;;;;;;;9.90;4.18;;;11.20;62.20;;;;;;5062831;28;20056;-50
2022/12/20 01:18:40;;;;;;;7.65;4.32;;;11.20;62.20;;;;;;5062657;28;20048;-50
2022/12/20 01:21:09;;;;;;;9.02;4.30;;;11.20;62.30;;;;;;5062031;28;20056;-52
2022/12/20 01:23:36;;;;;;;10.40;4.25;;;11.20;62.40;;;;;;5061669;28;20060;-50
2022/12/20 01:26:08;;;;;;;7.82;4.45;;;11.20;62.50;;;;;;5062999;28;20123;-47
2022/12/20 01:28:36;;;;;;;8.65;4.30;;;11.20;62.60;;;;;;5062780;28;20056;-51
2022/12/20 01:31:07;;;;;;;7.95;3.90;;;11.10;62.60;;;;;;5062385;28;20052;-52
2022/12/20 01:33:34;;;;;;;8.18;4.70;;;11.20;62.80;;;;;;5061480;28;20051;-51
2022/12/20 01:36:04;;;;;;;9.55;4.75;;;11.20;62.90;;;;;;5062328;28;20049;-49
2022/12/20 01:38:32;;;;;;;10.40;4.65;;;11.10;63.20;;;;;;5061011;28;20051;-50
2022/12/20 01:40:59;;;;;;;9.10;4.18;;;11.10;63.30;;;;;;5063026;28;20381;-51
2022/12/20 01:43:46;;;;;;;9.50;3.75;;;11.10;63.50;;;;;;5062889;28;20068;-49
2022/12/20 01:46:14;;;;;;;8.25;4.28;;;11.10;63.80;;;;;;5062882;28;20056;-50
2022/12/20 01:48:43;;;;;;;8.15;3.53;;;11.20;63.80;;;;;;5058319;28;20059;-53
2022/12/20 01:51:11;;;;;;;9.10;4.13;;;11.20;64.10;;;;;;5062844;28;20052;-48
2022/12/20 01:53:39;;;;;;;6.82;3.55;;;11.20;64.10;;;;;;5060279;28;20052;-52
2022/12/20 01:56:08;;;;;;;10.35;3.38;;;11.20;64.10;;;;;;5061537;28;20079;-49
2022/12/20 01:58:38;;;;;;;6.28;3.72;;;11.20;64.10;;;;;;5062320;28;20476;-49
2022/12/20 02:01:06;;;;;;;10.10;4.13;;;11.30;64.10;;;;;;5059753;28;20064;-52
2022/12/20 02:03:33;;;;;;;7.75;3.35;;;11.30;64.00;;;;;;5058588;28;20066;-50
2022/12/20 02:06:17;;;;;;;7.38;4.05;;;11.30;63.80;;;;;;5056306;28;20049;-49
2022/12/20 02:08:46;;;;;;;9.40;3.67;;;11.30;63.70;;;;;;5060504;28;20507;-51
2022/12/20 02:11:26;;;;;;;8.68;3.47;;;11.30;63.60;;;;;;5062409;28;20057;-49
2022/12/20 02:14:05;;;;;;;8.50;3.38;;;11.30;63.40;;;;;;5062170;28;20052;-53
2022/12/20 02:16:40;;;;;;;6.00;3.40;;;11.40;63.30;;;;;;5061768;28;20044;-49
2022/12/20 02:19:24;;;;;;;5.80;3.20;;;11.40;63.30;;;;;;5058487;28;20055;-48
2022/12/20 02:21:53;;;;;;;;;;;11.40;63.30;;;;;;5063045;28;20518;-52
2022/12/20 02:24:59;;;;;;;6.90;3.95;;;11.40;63.30;;;;;;5060955;28;19927;-52
2022/12/20 02:27:46;;;;;;;6.32;4.35;;;11.40;62.90;;;;;;5061259;28;20048;-50
2022/12/20 02:30:17;;;;;;;11.52;4.57;;;11.50;63.00;;;;;;5056846;28;20048;-51
2022/12/20 02:32:57;;;;;;;6.07;3.80;;;11.40;63.00;;;;;;5058911;28;20059;-51
2022/12/20 02:35:26;;;;;;;8.85;3.58;;;11.40;63.00;;;;;;5058360;28;20048;-50
2022/12/20 02:37:56;;;;;;;7.55;3.90;;;11.50;63.00;;;;;;5055479;28;20369;-50
2022/12/20 02:40:27;;;;;;;12.40;4.05;;;11.40;63.00;;;;;;5058124;28;20396;-52
2022/12/20 02:42:58;;;;;;;7.35;3.88;;;11.40;63.80;;;;;;5061528;28;20056;-50
2022/12/20 02:45:32;;;;;;;7.53;3.55;;;11.40;63.00;;;;;;5061245;28;20056;-53
2022/12/20 02:48:03;;;;;;;9.68;3.78;;;11.40;62.90;;;;;;5058314;28;20059;-51
2022/12/20 02:50:34;;;;;;;8.40;4.07;;;11.50;62.90;;;;;;5060301;28;20052;-48
2022/12/20 02:53:02;;;;;;;7.53;3.58;;;11.50;62.90;;;;;;5060137;28;20060;-49
2022/12/20 02:55:39;;;;;;;7.45;3.58;;;11.50;62.90;;;;;;5059424;28;20772;-51
2022/12/20 02:58:12;;;;;;;4.95;3.20;;;11.40;62.90;;;;;;5060802;28;20488;-53
2022/12/20 03:00:45;;;;;;;6.77;3.53;;;11.50;63.00;;;;;;5061304;28;20048;-52
2022/12/20 03:03:22;;;;;;;7.67;3.93;;;11.50;63.10;;;;;;5058398;28;20724;-49
2022/12/20 03:05:52;;;;;;;7.03;3.72;;;11.50;63.10;;;;;;5061305;28;20119;-52
2022/12/20 03:08:20;;;;;;;5.65;3.35;;;11.50;63.10;;;;;;5060107;28;20064;-53
2022/12/20 03:10:47;;;;;;;9.93;3.83;;;11.50;63.20;;;;;;5061285;28;20399;-47
2022/12/20 03:13:14;;;;;;;5.07;3.67;;;11.50;63.20;;;;;;5061284;28;20049;-50
2022/12/20 03:15:43;;;;;;;7.72;3.80;;;11.50;63.20;;;;;;5060310;28;20435;-48
2022/12/20 03:18:10;;;;;;;7.45;4.10;;;11.50;63.30;;;;;;5056623;28;21411;-49
2022/12/20 03:20:38;;;;;;;6.82;3.90;;;11.50;63.30;;;;;;5056685;28;20496;-50
2022/12/20 03:23:06;;;;;;;6.47;4.10;;;11.50;63.30;;;;;;5060878;28;20059;-51
2022/12/20 03:25:33;;;;;;;6.90;3.85;;;11.50;63.40;;;;;;5058654;28;20059;-49
2022/12/20 03:28:00;;;;;;;9.00;3.97;;;11.50;63.40;;;;;;5059912;28;20049;-50
2022/12/20 03:30:28;;;;;;;10.48;4.07;;;11.50;63.50;;;;;;5059961;28;20055;-51
2022/12/20 03:32:56;;;;;;;9.48;3.72;;;11.50;63.60;;;;;;5059664;28;20052;-51
2022/12/20 03:35:23;;;;;;;7.57;3.65;;;11.50;63.70;;;;;;5060917;28;20055;-52
2022/12/20 03:37:50;;;;;;;10.20;3.97;;;11.50;63.90;;;;;;5060737;28;20060;-50
2022/12/20 03:40:18;;;;;;;6.28;4.25;;;11.50;63.80;;;;;;5059355;28;20067;-47
2022/12/20 03:42:45;;;;;;;7.68;4.18;;;11.50;63.80;;;;;;5058920;28;20045;-50
2022/12/20 03:45:12;;;;;;;8.68;4.57;;;11.50;63.70;;;;;;5061188;28;20055;-51
2022/12/20 03:47:39;;;;;;;10.90;4.70;;;11.50;63.80;;;;;;5060797;28;20053;-51
2022/12/20 03:50:09;;;;;;;7.75;4.50;;;11.50;63.80;;;;;;5062553;28;20060;-51
2022/12/20 03:52:36;;;;;;;8.18;4.93;;;11.50;63.70;;;;;;5063753;28;20048;-44
2022/12/20 03:55:05;;;;;;;9.80;5.90;;;11.50;63.70;;;;;;5062075;28;20404;-48
2022/12/20 03:57:32;;;;;;;10.65;5.47;;;11.50;63.70;;;;;;5064752;28;20523;-50
2022/12/20 03:59:59;;;;;;;11.10;5.65;;;11.50;63.60;;;;;;5063523;28;20041;-47
2022/12/20 04:02:26;;;;;;;9.77;5.78;;;11.50;63.60;;;;;;5064121;28;20059;-48
2022/12/20 04:04:54;;;;;;;12.32;6.97;;;11.50;63.50;;;;;;5063993;28;20052;-46
2022/12/20 04:07:22;;;;;;;9.70;6.45;;;11.50;63.50;;;;;;5064193;28;20056;-47
2022/12/20 04:09:49;;;;;;;13.95;7.40;;;11.50;63.30;;;;;;5062262;28;20052;-50
2022/12/20 04:12:18;;;;;;;11.23;6.18;;;11.50;63.30;;;;;;5063683;28;20048;-47
2022/12/20 04:14:45;;;;;;;10.75;6.57;;;11.50;63.20;;;;;;5064003;28;20403;-48
2022/12/20 04:17:12;;;;;;;12.75;6.97;;;11.50;63.80;;;;;;5064495;28;20053;-45
2022/12/20 04:19:39;;;;;;;14.00;7.28;;;11.50;63.10;;;;;;5062232;28;20051;-47
2022/12/20 04:22:06;;;;;;;14.38;7.47;;;11.40;62.90;;;;;;5062269;28;20052;-46
2022/12/20 04:24:35;;;;;;;15.30;6.75;;;11.40;62.90;;;;;;5062415;28;20045;-47
2022/12/20 04:27:02;;;;;;;10.35;6.47;;;11.40;62.90;;;;;;5065024;28;20056;-45
2022/12/20 04:29:29;;;;;;;11.77;6.63;;;11.40;63.00;;;;;;5061063;28;20048;-44
2022/12/20 04:31:57;;;;;;;11.13;6.32;;;11.40;63.20;;;;;;5061968;28;20057;-43
2022/12/20 04:34:24;;;;;;;10.50;6.13;;;11.40;63.20;;;;;;5060777;28;20064;-49
2022/12/20 04:36:51;;;;;;;12.80;6.13;;;11.40;63.20;;;;;;5063482;28;20083;-48
2022/12/20 04:39:18;;;;;;;11.88;6.90;;;11.40;63.20;;;;;;5062013;28;20053;-49
2022/12/20 04:41:47;;;;;;;15.15;6.88;;;11.40;63.90;;;;;;5062291;28;20049;-47
2022/12/20 04:44:14;;;;;;;10.00;5.72;;;11.40;63.20;;;;;;5064443;28;20048;-48
2022/12/20 04:46:41;;;;;;;10.60;6.20;;;11.40;63.10;;;;;;5063468;28;20056;-46
2022/12/20 04:49:08;;;;;;;8.52;5.30;;;11.30;63.10;;;;;;5060453;28;20519;-45
2022/12/20 04:51:36;;;;;;;10.02;5.43;;;11.40;63.20;;;;;;5064397;28;20048;-46
2022/12/20 04:54:02;;;;;;;10.77;4.85;;;11.40;63.10;;;;;;5063779;28;20555;-47
2022/12/20 04:56:29;;;;;;;9.98;5.50;;;11.30;62.90;;;;;;5062581;28;20048;-48
2022/12/20 04:58:59;;;;;;;9.77;5.15;;;11.30;63.00;;;;;;5059345;28;20416;-50
2022/12/20 05:01:26;;;;;;;14.88;4.70;;;11.30;63.00;;;;;;5059607;28;20510;-46
2022/12/20 05:03:54;;;;;;;8.32;5.38;;;11.30;63.00;;;;;;5061347;28;20044;-48
2022/12/20 05:06:21;;;;;;;10.23;4.78;;;11.30;63.10;;;;;;5062854;28;20051;-48
2022/12/20 05:08:49;;;;;;;6.18;4.53;;;11.30;63.20;;;;;;5060929;28;20056;-50
2022/12/20 05:11:16;;;;;;;9.65;4.18;;;11.30;63.30;;;;;;5059097;28;20041;-47
2022/12/20 05:13:43;;;;;;;5.88;3.92;;;11.30;63.40;;;;;;5059031;28;20060;-51
2022/12/20 05:16:12;;;;;;;7.15;3.97;;;11.30;63.40;;;;;;5059960;28;20060;-45
2022/12/20 05:18:39;;;;;;;6.85;4.28;;;11.30;63.40;;;;;;5060701;28;20063;-46
2022/12/20 05:26:37;;;;;;;5.60;3.40;;;11.30;63.10;;;;;;5070419;28;20051;-49
2022/12/20 05:29:05;;;;;;;7.88;3.42;;;11.30;63.90;;;;;;5062690;28;20065;-49
2022/12/20 05:31:34;;;;;;;8.02;4.22;;;11.30;63.30;;;;;;5062822;28;20048;-49
2022/12/20 05:34:01;;;;;;;40.33;17.20;;;11.40;63.30;;;;;;5062849;28;20053;-50
2022/12/20 05:39:32;;;;;;;8.73;4.32;;;11.40;63.40;;;;;;5067829;28;20067;-46
2022/12/20 05:41:59;;;;;;;9.75;3.22;;;11.40;63.30;;;;;;5064310;28;20060;-47
2022/12/20 05:44:27;;;;;;;10.05;3.63;;;11.40;63.40;;;;;;5061784;28;20409;-47
2022/12/20 05:46:55;;;;;;;4.93;3.60;;;11.40;63.60;;;;;;5062790;28;20504;-48
2022/12/20 05:49:22;;;;;;;5.55;3.10;;;11.40;63.70;;;;;;5063914;28;20052;-50
2022/12/20 05:51:49;;;;;;;7.90;3.55;;;11.40;63.80;;;;;;5063620;28;20052;-50
2022/12/20 05:54:17;;;;;;;6.68;3.55;;;11.40;63.80;;;;;;5062592;28;20052;-44
2022/12/20 05:56:44;;;;;;;3.78;3.00;;;11.40;63.80;;;;;;5063743;28;20063;-49
2022/12/20 05:59:11;;;;;;;8.55;3.22;;;11.40;63.80;;;;;;5064589;28;20052;-47
2022/12/20 06:01:38;;;;;;;6.20;2.95;;;11.40;63.70;;;;;;5064450;28;20052;-44
2022/12/20 06:04:07;;;;;;;5.20;3.40;;;11.40;63.70;;;;;;5063697;28;20056;-49
2022/12/20 06:06:34;;;;;;;15.75;7.95;;;11.50;63.80;;;;;;5063863;28;20423;-44
2022/12/20 06:09:01;;;;;;;61.17;23.30;;;11.40;63.70;;;;;;5062188;28;20507;-46
2022/12/20 06:11:28;;;;;;;21.27;9.63;;;11.50;63.60;;;;;;5063256;28;20048;-48
2022/12/20 06:13:55;;;;;;;8.38;4.43;;;11.50;63.50;;;;;;5062085;28;20048;-45
2022/12/20 06:16:22;;;;;;;6.88;3.40;;;11.50;63.50;;;;;;5064308;28;20052;-49
2022/12/20 06:18:49;;;;;;;7.72;3.58;;;11.50;63.60;;;;;;5051566;28;20064;-44
2022/12/20 06:21:18;;;;;;;8.18;3.53;;;11.50;63.70;;;;;;5062180;28;20045;-43
2022/12/20 06:23:45;;;;;;;6.93;3.63;;;11.50;63.60;;;;;;5060379;28;20060;-45
2022/12/20 06:26:12;;;;;;;6.88;3.97;;;11.50;63.70;;;;;;5063337;28;20052;-45
2022/12/20 06:28:41;;;;;;;5.75;3.63;;;11.50;63.60;;;;;;5061709;28;20063;-48
2022/12/20 06:31:10;;;;;;;5.50;3.30;;;11.50;63.60;;;;;;5060184;28;20049;-46
2022/12/20 06:33:38;;;;;;;43.35;18.02;;;11.50;63.70;;;;;;5060155;28;20063;-49
2022/12/20 06:36:05;;;;;;;66.28;27.50;;;11.50;63.70;;;;;;5062195;28;20059;-50
2022/12/20 06:38:34;;;;;;;20.48;10.00;;;11.50;63.60;;;;;;5060989;28;20052;-46
2022/12/20 06:41:01;;;;;;;8.25;4.20;;;11.50;63.70;;;;;;5063263;28;20059;-45
2022/12/20 06:43:28;;;;;;;6.85;3.83;;;11.50;63.60;;;;;;5062100;28;20511;-45
2022/12/20 06:45:56;;;;;;;8.05;4.40;;;11.60;63.60;;;;;;5059257;28;20064;-44
2022/12/20 06:48:23;;;;;;;7.45;4.22;;;11.60;63.50;;;;;;5060670;28;20487;-48
2022/12/20 06:50:50;;;;;;;7.35;4.20;;;11.60;63.30;;;;;;5057136;28;20060;-45
2022/12/20 06:53:18;;;;;;;9.23;4.13;;;11.60;63.30;;;;;;5062237;28;20056;-49
2022/12/20 06:55:49;;;;;;;7.68;4.00;;;11.60;63.30;;;;;;5060726;28;20052;-45
2022/12/20 06:58:16;;;;;;;6.15;3.90;;;11.60;63.40;;;;;;5061411;28;20377;-45
2022/12/20 07:00:43;;;;;;;6.38;3.58;;;11.60;63.50;;;;;;5059764;28;20044;-46
2022/12/20 07:03:10;;;;;;;7.35;4.05;;;11.60;64.00;;;;;;5061544;28;20064;-46
2022/12/20 07:05:38;;;;;;;6.32;4.13;;;11.60;63.20;;;;;;5061435;28;20060;-47
2022/12/20 07:08:06;;;;;;;8.77;3.33;;;11.60;63.30;;;;;;5059435;28;20056;-46
2022/12/20 07:10:34;;;;;;;7.53;4.35;;;11.60;63.40;;;;;;5061207;28;20048;-47
2022/12/20 07:13:03;;;;;;;6.18;3.60;;;11.60;63.60;;;;;;5060889;28;20041;-46
2022/12/20 07:15:30;;;;;;;5.55;3.53;;;11.60;63.60;;;;;;5059773;28;20056;-43
2022/12/20 07:17:57;;;;;;;6.50;3.63;;;11.60;63.60;;;;;;5060426;28;20063;-49
2022/12/20 07:20:25;;;;;;;8.75;3.45;;;11.60;63.60;;;;;;5058354;28;20075;-47
2022/12/20 07:22:52;;;;;;;6.85;3.00;;;11.60;63.60;;;;;;5063034;28;20092;-49
2022/12/20 07:25:19;;;;;;;5.57;3.25;;;11.60;63.60;;;;;;5059861;28;20049;-49
2022/12/20 07:27:48;;;;;;;5.00;3.20;;;11.60;63.80;;;;;;5062169;28;20056;-50
2022/12/20 07:30:18;;;;;;;7.22;2.88;;;11.60;63.40;;;;;;5056956;28;20496;-48
2022/12/20 07:32:45;;;;;;;5.78;2.95;;;11.60;63.40;;;;;;5060771;28;20048;-47
2022/12/20 07:35:13;;;;;;;5.82;2.92;;;11.60;63.50;;;;;;5060649;28;20487;-45
2022/12/20 07:37:41;;;;;;;10.15;3.50;;;11.70;63.50;;;;;;5059920;28;20049;-48
2022/12/20 07:40:10;;;;;;;6.85;3.38;;;11.60;63.30;;;;;;5057581;28;20052;-48
2022/12/20 07:42:39;;;;;;;7.03;3.30;;;11.70;63.10;;;;;;5058534;28;20115;-46
2022/12/20 07:45:07;;;;;;;7.97;3.60;;;11.70;62.90;;;;;;5061787;28;20378;-47
2022/12/20 07:47:35;;;;;;;4.65;3.03;;;11.60;63.00;;;;;;5062191;28;20059;-49
2022/12/20 07:50:03;;;;;;;8.52;3.08;;;11.60;63.20;;;;;;5061174;28;20637;-47
2022/12/20 07:52:34;;;;;;;6.10;3.00;;;11.70;63.30;;;;;;5062839;28;20053;-51
2022/12/20 07:55:03;;;;;;;7.03;3.20;;;11.60;63.30;;;;;;5060456;28;20514;-50
2022/12/20 07:57:35;;;;;;;6.05;2.85;;;11.70;63.60;;;;;;5062445;28;20060;-49
2022/12/20 08:00:04;;;;;;;6.38;3.00;;;11.70;63.50;;;;;;5061303;28;20064;-48
2022/12/20 08:02:38;;;;;;;3.90;2.40;;;11.70;63.30;;;;;;5059681;28;20067;-46
2022/12/20 08:05:07;;;;;;;5.28;2.88;;;11.70;63.40;;;;;;5051981;28;20541;-48
2022/12/20 08:07:36;;;;;;;8.77;2.88;;;11.70;63.30;;;;;;5059345;28;20055;-47
2022/12/20 08:10:05;;;;;;;5.10;2.67;;;11.70;63.30;;;;;;5058035;28;20060;-45
2022/12/20 08:12:33;;;;;;;5.90;2.60;;;11.70;63.30;;;;;;5060216;28;20056;-45
2022/12/20 08:15:00;;;;;;;7.03;3.00;;;11.80;63.30;;;;;;5059813;28;20057;-48
2022/12/20 08:17:27;;;;;;;5.55;2.85;;;11.80;63.00;;;;;;5055291;28;20053;-46
2022/12/20 08:19:56;;;;;;;6.43;3.35;;;11.80;63.00;;;;;;5055637;28;20170;-47
2022/12/20 08:22:23;;;;;;;5.72;3.10;;;11.80;63.80;;;;;;5057264;28;20056;-45
2022/12/20 08:24:51;;;;;;;4.63;2.63;;;11.80;63.00;;;;;;5056323;28;20048;-48
2022/12/20 08:27:18;;;;;;;38.15;16.05;;;11.80;62.90;;;;;;5055316;28;20060;-48
2022/12/20 08:29:45;;;;;;;10.18;5.50;;;11.80;62.90;;;;;;5057118;28;20056;-46
2022/12/20 08:32:13;;;;;;;6.90;3.15;;;11.80;62.80;;;;;;5059215;28;20044;-45
2022/12/20 08:34:40;;;;;;;7.32;2.70;;;11.80;62.90;;;;;;5059680;28;20044;-50
2022/12/20 08:37:08;;;;;;;7.50;2.97;;;11.80;63.00;;;;;;5063312;28;20052;-47
2022/12/20 08:39:36;;;;;;;6.13;3.60;;;11.90;63.10;;;;;;5062363;28;20049;-47
2022/12/20 08:42:05;;;;;;;5.25;2.75;;;11.80;63.10;;;;;;5062697;28;20048;-49
2022/12/20 08:44:32;;;;;;;5.93;3.00;;;11.80;63.10;;;;;;5062819;28;20048;-50
2022/12/20 08:47:00;;;;;;;5.78;2.92;;;11.90;63.10;;;;;;5062768;28;20060;-48
2022/12/20 08:49:27;;;;;;;6.05;2.53;;;11.90;62.90;;;;;;5063140;28;20048;-48
2022/12/20 08:51:54;;;;;;;4.68;2.30;;;11.90;63.00;;;;;;5063335;28;20045;-51
2022/12/20 08:54:23;;;;;;;5.07;2.85;;;11.90;62.90;;;;;;5061429;28;20064;-49
2022/12/20 08:56:50;;;;;;;7.30;2.58;;;11.90;62.80;;;;;;5061489;28;20079;-48
2022/12/20 08:59:18;;;;;;;3.25;2.10;;;11.90;62.80;;;;;;5064120;28;20091;-47
2022/12/20 09:01:45;;;;;;;7.38;3.35;;;11.90;62.90;;;;;;5063987;28;20407;-48
2022/12/20 09:04:14;;;;;;;6.32;2.60;;;11.90;62.80;;;;;;5061866;28;20068;-48
2022/12/20 09:06:41;;;;;;;5.30;2.50;;;11.90;62.60;;;;;;5062432;28;20063;-47
2022/12/20 09:09:08;;;;;;;6.10;3.00;;;11.90;62.60;;;;;;5058966;28;20056;-46
2022/12/20 09:11:37;;;;;;;6.28;2.88;;;12.00;62.80;;;;;;5060095;28;20048;-46
2022/12/20 09:14:04;;;;;;;6.60;2.42;;;12.00;62.60;;;;;;5062409;28;20083;-52
2022/12/20 09:16:33;;;;;;;10.25;3.20;;;12.00;62.70;;;;;;5060467;28;20052;-50
2022/12/20 09:19:01;;;;;;;5.30;3.00;;;12.00;62.50;;;;;;5064265;28;20056;-43
2022/12/20 09:21:28;;;;;;;5.80;2.65;;;12.00;62.50;;;;;;5063700;28;20504;-50
2022/12/20 09:23:56;;;;;;;4.55;2.45;;;12.00;62.60;;;;;;5062600;28;20060;-48
2022/12/20 09:26:25;;;;;;;4.05;2.40;;;12.00;62.60;;;;;;5062892;28;20056;-47
2022/12/20 09:28:53;;;;;;;5.53;2.25;;;12.00;62.50;;;;;;5060254;28;20060;-43
2022/12/20 09:31:23;;;;;;;5.70;3.00;;;12.00;62.60;;;;;;5060947;28;20048;-49
2022/12/20 09:33:53;;;;;;;6.80;2.92;;;12.00;62.60;;;;;;5062383;28;20060;-46
2022/12/20 09:36:22;;;;;;;5.03;2.90;;;12.10;62.50;;;;;;5062525;28;20423;-48
2022/12/20 09:38:50;;;;;;;5.82;3.28;;;12.00;62.20;;;;;;5062261;28;20052;-44
2022/12/20 09:41:25;;;;;;;4.88;3.35;;;12.10;62.10;;;;;;5063948;28;20063;-44
2022/12/20 09:43:54;;;;;;;6.90;3.20;;;12.10;62.00;;;;;;5061569;28;20382;-46
2022/12/20 09:46:23;;;;;;;5.22;3.08;;;12.10;62.00;;;;;;5063056;28;20499;-48
2022/12/20 09:48:50;;;;;;;6.57;3.28;;;12.10;62.10;;;;;;5062543;28;20048;-49
2022/12/20 09:51:44;;;;;;;6.25;3.17;;;12.10;62.10;;;;;;5062704;28;20364;-45
2022/12/20 09:54:21;;;;;;;9.85;3.75;;;12.10;62.00;;;;;;5061257;28;20052;-45
2022/12/20 09:56:58;;;;;;;6.85;4.13;;;12.10;62.00;;;;;;5060989;28;20064;-47
2022/12/20 09:59:27;;;;;;;8.40;5.10;;;12.10;62.00;;;;;;5062513;28;20055;-46
2022/12/20 10:01:54;;;;;;;8.05;4.40;;;12.10;62.00;;;;;;5062856;28;20131;-47
2022/12/20 10:04:24;;;;;;;6.78;4.13;;;12.10;61.90;;;;;;5058677;28;20055;-48
2022/12/20 10:07:08;;;;;;;7.93;4.47;;;12.10;61.70;;;;;;5062312;28;20052;-47
2022/12/20 10:09:53;;;;;;;7.30;3.85;;;12.10;61.60;;;;;;5059301;28;20049;-47
2022/12/20 10:12:31;;;;;;;10.88;4.50;;;12.20;61.50;;;;;;5060398;28;20072;-49
2022/12/20 10:15:14;;;;;;;7.03;4.10;;;12.10;61.40;;;;;;5060107;28;20048;-48
2022/12/20 10:17:52;;;;;;;8.05;4.18;;;12.10;61.40;;;;;;5061156;28;20087;-47
2022/12/20 10:20:33;;;;;;;6.78;4.05;;;12.10;61.00;;;;;;5061602;28;20044;-49
2022/12/20 10:23:07;;;;;;;9.68;4.60;;;12.10;61.10;;;;;;5060163;28;20080;-45
2022/12/20 10:25:34;;;;;;;;;;;12.10;61.30;;;;;;5060410;28;20063;-47
2022/12/20 10:28:05;;;;;;;6.28;3.67;;;12.20;61.50;;;;;;5061469;28;19924;-47
2022/12/20 10:30:35;;;;;;;9.13;3.50;;;12.20;61.30;;;;;;5060660;28;20061;-46
2022/12/20 10:33:02;;;;;;;8.60;3.67;;;12.20;61.40;;;;;;5061494;28;20404;-42
2022/12/20 10:35:31;;;;;;;11.88;4.28;;;12.20;61.50;;;;;;5058466;28;20059;-50
2022/12/20 10:38:01;;;;;;;6.10;3.92;;;12.20;61.60;;;;;;5059575;28;20063;-47
2022/12/20 10:40:30;;;;;;;11.40;4.55;;;12.20;61.70;;;;;;5059962;28;20056;-45
2022/12/20 10:42:58;;;;;;;7.05;4.15;;;12.20;61.60;;;;;;5062499;28;20053;-45
2022/12/20 10:45:35;;;;;;;5.55;3.75;;;12.20;61.60;;;;;;5063046;28;20056;-43
2022/12/20 10:48:06;;;;;;;10.82;4.78;;;12.20;61.70;;;;;;5058375;28;20053;-48
2022/12/20 10:50:33;;;;;;;8.43;4.07;;;12.20;61.70;;;;;;5059742;28;20052;-48
2022/12/20 10:53:23;;;;;;;9.80;3.65;;;12.20;61.60;;;;;;5058672;28;20040;-47
2022/12/20 10:55:51;;;;;;;6.90;3.85;;;12.20;61.60;;;;;;5062065;28;20053;-47
2022/12/20 10:58:29;;;;;;;7.82;3.90;;;12.30;61.70;;;;;;5053319;28;20059;-48
2022/12/20 11:01:05;;;;;;;8.55;3.80;;;12.30;61.60;;;;;;5060344;28;20735;-46
2022/12/20 11:03:33;;;;;;;7.22;3.47;;;12.30;61.50;;;;;;5060543;28;20044;-46
2022/12/20 11:06:03;;;;;;;7.38;3.25;;;12.30;61.50;;;;;;5060127;28;20055;-47
2022/12/20 11:08:32;;;;;;;6.43;3.03;;;12.30;61.60;;;;;;5058740;28;20079;-47
2022/12/20 11:11:17;;;;;;;10.25;3.78;;;12.30;61.50;;;;;;5062098;28;20496;-45
2022/12/20 11:13:46;;;;;;;5.55;2.97;;;12.30;61.20;;;;;;5060064;28;20063;-49
2022/12/20 11:16:34;;;;;;;5.53;3.15;;;12.30;61.30;;;;;;5058622;28;21386;-49
2022/12/20 11:19:50;;;;;;;5.22;3.42;;;12.30;61.40;;;;;;5059786;28;20059;-50
2022/12/20 11:22:31;;;;;;;6.90;3.70;;;12.30;61.50;;;;;;4992493;28;20060;-50
2022/12/20 11:25:10;;;;;;;4.82;2.92;;;12.30;61.40;;;;;;5058869;28;20049;-46
2022/12/20 11:27:45;;;;;;;6.10;3.15;;;12.30;61.70;;;;;;5056555;28;20052;-47
2022/12/20 11:30:19;;;;;;;7.10;3.17;;;12.30;61.90;;;;;;5058375;28;20051;-47
2022/12/20 11:33:14;;;;;;;5.75;2.78;;;12.40;62.00;;;;;;5060485;28;20657;-44
2022/12/20 11:35:52;;;;;;;3.83;2.33;;;12.40;61.80;;;;;;5057150;28;20056;-49
2022/12/20 11:38:32;;;;;;;7.55;2.67;;;12.40;62.00;;;;;;5057665;28;20048;-50
2022/12/20 11:41:09;;;;;;;5.03;2.10;;;12.40;62.20;;;;;;5061576;28;21345;-47
2022/12/20 11:43:51;;;;;;;5.05;2.03;;;12.40;62.30;;;;;;5060344;28;20049;-49
2022/12/20 11:46:30;;;;;;;5.65;1.80;;;12.50;62.30;;;;;;5058023;28;20060;-46
2022/12/20 11:49:21;;;;;;;5.05;1.63;;;12.50;62.50;;;;;;5060687;28;20056;-47
2022/12/20 11:51:58;;;;;;;4.95;1.75;;;12.50;62.80;;;;;;5056628;28;20059;-48
2022/12/20 11:54:32;;;;;;;3.13;1.60;;;12.50;62.70;;;;;;5056332;28;20055;-47
2022/12/20 11:57:05;;;;;;;4.28;1.77;;;12.60;62.80;;;;;;5058211;28;20048;-44
2022/12/20 11:59:41;;;;;;;4.47;1.90;;;12.60;62.60;;;;;;5056915;28;20404;-46
2022/12/20 12:02:13;;;;;;;5.47;1.75;;;12.70;62.60;;;;;;5060506;28;20056;-49
2022/12/20 12:04:45;;;;;;;3.78;1.40;;;12.70;62.60;;;;;;5061953;28;20056;-47
2022/12/20 12:07:19;;;;;;;4.20;1.85;;;12.70;62.70;;;;;;5060815;28;20052;-48
2022/12/20 12:09:54;;;;;;;6.37;1.73;;;12.80;62.80;;;;;;5061380;28;20412;-47
2022/12/20 12:12:26;;;;;;;5.03;1.63;;;12.80;62.70;;;;;;5065952;28;20056;-47
2022/12/20 12:15:00;;;;;;;4.90;1.70;;;12.90;62.70;;;;;;5065602;28;20480;-50
2022/12/20 12:17:35;;;;;;;5.60;1.60;;;12.90;62.70;;;;;;5065175;28;20053;-45
2022/12/20 12:20:20;;;;;;;1.85;1.40;;;12.90;62.40;;;;;;5065609;28;20059;-43
2022/12/20 12:22:53;;;;;;;3.72;1.48;;;13.00;62.50;;;;;;5066882;28;20134;-48
2022/12/20 12:25:20;;;;;;;3.90;1.17;;;13.10;62.50;;;;;;5063124;28;20059;-45
2022/12/20 12:27:48;;;;;;;2.50;1.30;;;13.10;62.20;;;;;;5066346;28;20064;-48
2022/12/20 12:30:17;;;;;;;3.90;1.38;;;13.10;62.20;;;;;;5066694;28;20052;-48
2022/12/20 12:32:50;;;;;;;3.67;1.30;;;13.20;61.90;;;;;;5066428;28;20060;-48
2022/12/20 12:35:54;;;;;;;3.78;1.13;;;13.20;61.80;;;;;;5065441;28;20130;-45
2022/12/20 12:38:57;;;;;;;3.03;1.42;;;13.20;61.40;;;;;;5040511;28;20331;-49
2022/12/20 12:41:51;;;;;;;3.85;1.10;;;13.30;61.40;;;;;;5065275;28;20053;-50
2022/12/20 12:44:39;;;;;;;2.97;1.50;;;13.40;61.40;;;;;;5062837;28;20491;-49
2022/12/20 12:47:14;;;;;;;3.83;1.33;;;13.40;61.10;;;;;;5066448;28;20060;-52
2022/12/20 12:49:42;;;;;;;3.08;1.20;;;13.40;61.00;;;;;;5065371;28;20055;-44
2022/12/20 12:52:29;;;;;;;3.70;1.40;;;13.40;61.70;;;;;;5065918;28;20063;-44
2022/12/20 12:54:56;;;;;;;3.65;1.30;;;13.40;60.80;;;;;;5062104;28;20044;-48
2022/12/20 12:57:25;;;;;;;5.22;1.40;;;13.50;60.80;;;;;;5065365;28;20056;-46
2022/12/20 12:59:52;;;;;;;3.40;1.13;;;13.50;60.70;;;;;;5061283;28;20056;-47
2022/12/20 13:02:27;;;;;;;4.25;1.30;;;13.50;60.70;;;;;;5062555;28;20071;-51
2022/12/20 13:04:58;;;;;;;2.97;1.13;;;13.50;60.70;;;;;;5063909;28;20144;-46
2022/12/20 13:07:30;;;;;;;4.88;1.45;;;13.60;60.80;;;;;;5065503;28;20056;-44
2022/12/20 13:09:58;;;;;;;3.55;1.30;;;13.60;60.70;;;;;;5062929;28;20059;-44
2022/12/20 13:12:57;;;;;;;4.20;1.00;;;13.60;60.60;;;;;;5064307;28;20056;-45